Time;durP1;ratioP1;P1;durP2;ratioP2;P2;SDS_P1;SDS_P2;PMS_P1;PMS_P2;Temp;Humidity;BMP_temperature;BMP_pressure;BME280_temperature;BME280_humidity;BME280_pressure;Samples;Min_cycle;Max_cycle;Signal;HPM_P1;HPM_P2
2023/05/03 00:02:04;;;;;;;;;;;9.30;45.70;;;;;;4986992;28;20041;-66
2023/05/03 00:04:30;;;;;;;;;;;9.30;45.60;;;;;;4997146;28;20068;-66
2023/05/03 00:06:56;;;;;;;;;;;9.20;45.50;;;;;;4987314;28;20399;-66
2023/05/03 00:09:21;;;;;;;;;;;9.20;45.40;;;;;;4975200;28;19990;-66
2023/05/03 00:11:47;;;;;;;;;;;9.00;45.40;;;;;;4980543;28;19941;-66
2023/05/03 00:14:12;;;;;;;;;;;9.00;45.40;;;;;;4980738;28;19941;-66
2023/05/03 00:16:38;;;;;;;;;;;8.90;45.40;;;;;;4980804;28;20354;-66
2023/05/03 00:19:03;;;;;;;;;;;8.80;45.40;;;;;;4988980;28;19922;-66
2023/05/03 00:21:28;;;;;;;;;;;8.80;45.40;;;;;;4982760;28;19910;-66
2023/05/03 00:23:54;;;;;;;;;;;8.70;45.90;;;;;;4996485;28;20043;-66
2023/05/03 00:26:20;;;;;;;;;;;8.70;46.00;;;;;;4985240;28;19921;-66
2023/05/03 00:28:45;;;;;;;;;;;8.60;46.20;;;;;;4999661;28;20264;-66
2023/05/03 00:31:11;;;;;;;;;;;8.50;46.10;;;;;;4990649;28;19914;-66
2023/05/03 00:33:36;;;;;;;;;;;8.50;46.20;;;;;;4986354;28;19940;-66
2023/05/03 00:36:06;;;;;;;;;;;8.40;46.30;;;;;;4995389;28;20005;-66
2023/05/03 00:38:31;;;;;;;;;;;8.40;46.50;;;;;;4979747;28;20021;-66
2023/05/03 00:40:56;;;;;;;;;;;8.30;46.50;;;;;;4997273;28;20370;-66
2023/05/03 00:43:22;;;;;;;;;;;8.30;47.00;;;;;;4996172;28;19957;-66
2023/05/03 00:45:47;;;;;;;;;;;8.20;46.90;;;;;;4990392;28;20385;-66
2023/05/03 00:48:13;;;;;;;;;;;8.20;46.70;;;;;;4979484;28;19926;-66
2023/05/03 00:50:39;;;;;;;;;;;8.20;46.70;;;;;;4994357;28;19921;-66
2023/05/03 00:53:04;;;;;;;;;;;8.20;46.60;;;;;;4997818;28;20017;-66
2023/05/03 00:55:30;;;;;;;;;;;8.20;46.50;;;;;;4998831;28;19961;-66
2023/05/03 00:57:56;;;;;;;;;;;8.10;46.40;;;;;;4982889;28;19925;-66
2023/05/03 01:00:22;;;;;;;;;;;8.00;46.50;;;;;;4980823;28;19937;-66
2023/05/03 01:02:48;;;;;;;;;;;8.00;46.70;;;;;;4982154;28;19994;-66
2023/05/03 01:05:14;;;;;;;;;;;7.90;46.80;;;;;;4980646;28;19961;-66
2023/05/03 01:07:42;;;;;;;;;;;7.90;46.70;;;;;;4990236;28;19925;-66
2023/05/03 01:10:16;;;;;;;;;;;7.80;46.70;;;;;;4983821;28;19946;-66
2023/05/03 01:12:56;;;;;;;;;;;7.80;46.70;;;;;;4991583;28;19922;-66
2023/05/03 01:15:40;;;;;;;;;;;7.80;46.80;;;;;;4965197;28;20290;-66
2023/05/03 01:18:09;;;;;;;;;;;7.70;46.90;;;;;;4999085;28;19972;-66
2023/05/03 01:20:36;;;;;;;;;;;7.60;46.90;;;;;;4990564;28;20346;-66
2023/05/03 01:23:07;;;;;;;;;;;7.50;46.90;;;;;;4979867;28;19956;-66
2023/05/03 01:25:33;;;;;;;;;;;7.50;46.80;;;;;;4979750;28;20029;-66
2023/05/03 01:27:58;;;;;;;;;;;7.40;46.80;;;;;;4979402;28;20400;-66
2023/05/03 01:30:25;;;;;;;;;;;7.40;46.80;;;;;;4980569;28;19953;-66
2023/05/03 01:32:51;;;;;;;;;;;7.30;46.90;;;;;;4990421;28;19918;-66
2023/05/03 01:35:25;;;;;;;;;;;7.30;46.90;;;;;;4979776;28;19917;-66
2023/05/03 01:37:50;;;;;;;;;;;7.20;46.90;;;;;;4992266;28;19918;-66
2023/05/03 01:40:18;;;;;;;;;;;7.20;47.00;;;;;;4999059;28;19965;-66
2023/05/03 01:42:44;;;;;;;;;;;7.20;47.00;;;;;;4993474;28;19922;-66
2023/05/03 01:45:10;;;;;;;;;;;7.10;47.10;;;;;;4985071;28;19918;-66
2023/05/03 01:47:36;;;;;;;;;;;7.10;47.00;;;;;;4990727;28;19984;-66
2023/05/03 01:50:01;;;;;;;;;;;7.10;47.00;;;;;;4998075;28;20319;-66
2023/05/03 01:52:27;;;;;;;;;;;7.00;47.00;;;;;;4998610;28;19910;-66
2023/05/03 01:54:52;;;;;;;;;;;7.00;47.20;;;;;;4998834;28;19918;-66
2023/05/03 01:57:18;;;;;;;;;;;7.00;47.20;;;;;;4998130;28;20369;-66
2023/05/03 01:59:43;;;;;;;;;;;7.00;47.20;;;;;;4998229;28;19924;-66
2023/05/03 02:02:08;;;;;;;;;;;6.90;47.30;;;;;;4996064;28;20004;-66
2023/05/03 02:04:34;;;;;;;;;;;6.90;47.40;;;;;;4992417;28;20009;-66
2023/05/03 02:06:59;;;;;;;;;;;6.90;47.50;;;;;;4980565;28;19924;-66
2023/05/03 02:09:25;;;;;;;;;;;6.80;47.60;;;;;;4986834;28;19964;-66
2023/05/03 02:11:50;;;;;;;;;;;6.80;47.70;;;;;;4983075;28;20057;-66
2023/05/03 02:14:16;;;;;;;;;;;6.80;47.70;;;;;;4978761;28;20285;-66
2023/05/03 02:16:42;;;;;;;;;;;6.80;47.70;;;;;;4980156;28;19920;-66
2023/05/03 02:19:07;;;;;;;;;;;6.70;47.70;;;;;;4984725;28;19928;-62
2023/05/03 02:21:33;;;;;;;;;;;6.70;47.70;;;;;;4973027;28;19913;-62
2023/05/03 02:23:58;;;;;;;;;;;6.60;47.60;;;;;;4988762;28;20397;-62
2023/05/03 02:26:24;;;;;;;;;;;6.70;47.60;;;;;;4991146;28;20395;-62
2023/05/03 02:28:49;;;;;;;;;;;6.60;47.70;;;;;;4989093;28;19924;-62
2023/05/03 02:31:15;;;;;;;;;;;6.60;47.70;;;;;;4982392;28;20023;-62
2023/05/03 02:33:40;;;;;;;;;;;6.60;47.90;;;;;;4981282;28;19933;-62
2023/05/03 02:36:06;;;;;;;;;;;6.50;47.90;;;;;;4972856;28;19910;-62
2023/05/03 02:38:31;;;;;;;;;;;6.50;48.00;;;;;;4973054;28;20013;-62
2023/05/03 02:40:58;;;;;;;;;;;6.50;48.10;;;;;;4979055;28;19917;-62
2023/05/03 02:43:24;;;;;;;;;;;6.40;48.00;;;;;;4996362;28;19977;-66
2023/05/03 02:45:49;;;;;;;;;;;6.40;48.10;;;;;;4997766;28;19918;-66
2023/05/03 02:48:15;;;;;;;;;;;6.40;48.20;;;;;;4985780;28;19922;-66
2023/05/03 02:50:40;;;;;;;;;;;6.40;48.20;;;;;;4978368;28;19918;-66
2023/05/03 02:53:06;;;;;;;;;;;6.30;48.20;;;;;;4996166;28;19950;-66
2023/05/03 02:55:32;;;;;;;;;;;6.30;48.20;;;;;;4998340;28;19909;-66
2023/05/03 02:57:57;;;;;;;;;;;6.30;48.20;;;;;;4982158;28;19945;-66
2023/05/03 03:00:23;;;;;;;;;;;6.20;48.20;;;;;;4979439;28;19922;-66
2023/05/03 03:02:48;;;;;;;;;;;6.20;48.40;;;;;;4997049;28;19921;-66
2023/05/03 03:05:14;;;;;;;;;;;6.20;48.60;;;;;;4995900;28;20013;-66
2023/05/03 03:07:39;;;;;;;;;;;6.10;48.70;;;;;;4981980;28;19973;-66
2023/05/03 03:10:06;;;;;;;;;;;6.10;48.70;;;;;;4961698;28;19918;-66
2023/05/03 03:12:32;;;;;;;;;;;6.00;48.70;;;;;;4992124;28;19914;-66
2023/05/03 03:14:58;;;;;;;;;;;6.00;48.60;;;;;;4997645;28;19914;-66
2023/05/03 03:17:23;;;;;;;;;;;5.90;48.50;;;;;;4985676;28;19944;-66
2023/05/03 03:19:48;;;;;;;;;;;5.90;48.50;;;;;;4978998;28;19914;-66
2023/05/03 03:22:14;;;;;;;;;;;5.90;48.40;;;;;;4995207;28;19914;-66
2023/05/03 03:24:39;;;;;;;;;;;5.90;48.40;;;;;;4995830;28;19918;-66
2023/05/03 03:27:05;;;;;;;;;;;5.80;48.50;;;;;;4994805;28;19918;-66
2023/05/03 03:29:31;;;;;;;;;;;5.80;48.60;;;;;;4985021;28;19922;-66
2023/05/03 03:31:56;;;;;;;;;;;5.80;48.50;;;;;;4996279;28;20388;-66
2023/05/03 03:34:22;;;;;;;;;;;5.80;48.60;;;;;;4993314;28;19917;-66
2023/05/03 03:36:47;;;;;;;;;;;5.80;48.60;;;;;;5000826;28;19910;-66
2023/05/03 03:39:12;;;;;;;;;;;5.80;48.60;;;;;;4993914;28;19932;-66
2023/05/03 03:41:38;;;;;;;;;;;5.80;48.60;;;;;;4982672;28;20047;-66
2023/05/03 03:44:03;;;;;;;;;;;5.80;48.70;;;;;;4984463;28;20381;-66
2023/05/03 03:46:29;;;;;;;;;;;5.80;48.80;;;;;;4989227;28;20016;-67
2023/05/03 03:48:54;;;;;;;;;;;5.80;48.80;;;;;;4981239;28;19918;-66
2023/05/03 03:51:20;;;;;;;;;;;5.80;48.80;;;;;;4981091;28;19938;-66
2023/05/03 03:53:45;;;;;;;;;;;5.70;48.80;;;;;;5000790;28;20382;-66
2023/05/03 03:56:11;;;;;;;;;;;5.80;48.90;;;;;;5000582;28;19960;-66
2023/05/03 03:58:36;;;;;;;;;;;5.70;49.00;;;;;;5000684;28;20012;-66
2023/05/03 04:01:02;;;;;;;;;;;5.80;49.00;;;;;;5000891;28;20371;-66
2023/05/03 04:03:27;;;;;;;;;;;5.80;49.10;;;;;;4983621;28;20239;-66
2023/05/03 04:05:53;;;;;;;;;;;5.80;49.20;;;;;;4963938;28;20370;-66
2023/05/03 04:08:18;;;;;;;;;;;5.90;49.40;;;;;;4980912;28;19965;-66
2023/05/03 04:10:43;;;;;;;;;;;6.00;49.80;;;;;;4981264;28;20381;-66
2023/05/03 04:13:09;;;;;;;;;;;6.10;50.30;;;;;;4982131;28;20037;-66
2023/05/03 04:15:34;;;;;;;;;;;6.20;50.80;;;;;;4991062;28;19910;-66
2023/05/03 04:18:00;;;;;;;;;;;6.40;51.30;;;;;;4979604;28;20316;-67
2023/05/03 04:20:25;;;;;;;;;;;6.70;51.70;;;;;;4991906;28;20264;-67
2023/05/03 04:22:51;;;;;;;;;;;6.90;52.10;;;;;;4999189;28;19925;-67
2023/05/03 04:25:17;;;;;;;;;;;7.20;52.50;;;;;;5001692;28;19924;-67
2023/05/03 04:27:43;;;;;;;;;;;7.50;52.80;;;;;;5008231;28;19925;-67
2023/05/03 04:30:09;;;;;;;;;;;7.80;53.10;;;;;;4988361;28;20293;-62
2023/05/03 04:32:36;;;;;;;;;;;8.20;53.40;;;;;;4981168;28;19910;-62
2023/05/03 04:35:08;;;;;;;;;;;8.60;53.60;;;;;;4996816;28;19910;-62
2023/05/03 04:37:34;;;;;;;;;;;9.00;53.90;;;;;;4994525;28;19914;-63
2023/05/03 04:39:59;;;;;;;;;;;9.40;54.10;;;;;;4994550;28;19910;-63
2023/05/03 04:42:25;;;;;;;;;;;9.80;54.20;;;;;;4992711;28;19921;-63
2023/05/03 04:44:51;;;;;;;;;;;10.20;54.30;;;;;;4994466;28;19913;-63
2023/05/03 04:47:17;;;;;;;;;;;10.70;54.20;;;;;;4975990;28;20281;-63
2023/05/03 04:49:42;;;;;;;;;;;11.10;54.10;;;;;;4974913;28;19914;-63
2023/05/03 04:52:09;;;;;;;;;;;11.50;54.00;;;;;;4989910;28;19913;-63
2023/05/03 04:54:34;;;;;;;;;;;11.90;53.70;;;;;;4994647;28;20285;-63
2023/05/03 04:57:00;;;;;;;;;;;12.30;53.40;;;;;;4979773;28;19914;-65
2023/05/03 04:59:25;;;;;;;;;;;12.70;53.20;;;;;;4974581;28;19918;-63
2023/05/03 05:01:51;;;;;;;;;;;13.10;52.90;;;;;;4983254;28;20350;-63
2023/05/03 05:04:16;;;;;;;;;;;13.50;52.60;;;;;;4994451;28;19949;-64
2023/05/03 05:06:41;;;;;;;;;;;13.80;51.90;;;;;;4994683;28;20008;-63
2023/05/03 05:09:18;;;;;;;;;;;14.20;51.80;;;;;;4994383;28;19925;-63
2023/05/03 05:11:44;;;;;;;;;;;14.60;51.50;;;;;;4993975;28;19924;-63
2023/05/03 05:14:10;;;;;;;;;;;15.00;51.00;;;;;;4994143;28;19917;-63
2023/05/03 05:16:35;;;;;;;;;;;15.40;50.50;;;;;;4994307;28;19920;-67
2023/05/03 05:19:00;;;;;;;;;;;15.80;50.00;;;;;;5001336;28;19924;-68
2023/05/03 05:21:26;;;;;;;;;;;16.20;49.30;;;;;;4996211;28;19917;-63
2023/05/03 05:23:52;;;;;;;;;;;16.50;48.80;;;;;;4984151;28;20284;-63
2023/05/03 05:26:17;;;;;;;;;;;17.00;48.50;;;;;;4993521;28;19914;-63
2023/05/03 05:28:43;;;;;;;;;;;17.30;47.30;;;;;;4993134;28;19988;-63
2023/05/03 05:31:08;;;;;;;;;;;17.80;46.30;;;;;;4993466;28;19983;-64
2023/05/03 05:33:33;;;;;;;;;;;18.20;45.40;;;;;;4993820;28;19972;-63
2023/05/03 05:35:59;;;;;;;;;;;18.50;44.50;;;;;;4993497;28;19910;-63
2023/05/03 05:38:24;;;;;;;;;;;18.90;44.10;;;;;;4988669;28;19925;-63
2023/05/03 05:40:50;;;;;;;;;;;19.30;43.30;;;;;;4957121;28;20027;-64
2023/05/03 05:43:15;;;;;;;;;;;19.70;42.60;;;;;;4979957;28;19918;-63
2023/05/03 05:45:41;;;;;;;;;;;20.10;42.10;;;;;;4977071;28;19964;-68
2023/05/03 05:48:08;;;;;;;;;;;20.50;41.50;;;;;;4997279;28;22375;-68
2023/05/03 05:50:34;;;;;;;;;;;20.90;41.10;;;;;;4996725;28;19922;-65
2023/05/03 05:53:00;;;;;;;;;;;21.40;40.10;;;;;;4978800;28;20272;-66
2023/05/03 05:55:26;;;;;;;;;;;21.80;39.60;;;;;;4983467;28;19967;-68
2023/05/03 05:57:51;;;;;;;;;;;22.20;38.50;;;;;;4998983;28;20008;-66
2023/05/03 06:00:17;;;;;;;;;;;22.50;37.40;;;;;;4998214;28;19914;-66
2023/05/03 06:02:43;;;;;;;;;;;22.80;36.60;;;;;;4992505;28;20016;-65
2023/05/03 06:05:09;;;;;;;;;;;23.10;35.90;;;;;;4995900;28;19999;-66
2023/05/03 06:07:35;;;;;;;;;;;23.40;35.20;;;;;;4996699;28;19914;-65
2023/05/03 06:10:01;;;;;;;;;;;23.70;35.20;;;;;;4986105;28;19918;-66
2023/05/03 06:12:26;;;;;;;;;;;24.00;34.90;;;;;;4983838;28;19917;-66
2023/05/03 06:14:51;;;;;;;;;;;24.30;34.70;;;;;;4989089;28;20380;-66
2023/05/03 06:17:17;;;;;;;;;;;24.70;34.40;;;;;;4998489;28;19910;-66
2023/05/03 06:19:42;;;;;;;;;;;25.10;34.20;;;;;;4992919;28;19922;-66
2023/05/03 06:22:08;;;;;;;;;;;25.40;33.10;;;;;;4998603;28;19918;-66
2023/05/03 06:24:33;;;;;;;;;;;25.80;32.10;;;;;;4994528;28;19922;-66
2023/05/03 06:26:59;;;;;;;;;;;26.00;31.20;;;;;;4987866;28;19926;-66
2023/05/03 06:29:24;;;;;;;;;;;26.30;30.20;;;;;;4990441;28;19918;-66
2023/05/03 06:31:50;;;;;;;;;;;26.50;29.90;;;;;;4987619;28;20620;-66
2023/05/03 06:34:17;;;;;;;;;;;26.70;29.40;;;;;;4996785;28;20312;-66
2023/05/03 06:36:42;;;;;;;;;;;26.90;29.30;;;;;;4978562;28;19950;-66
2023/05/03 06:39:08;;;;;;;;;;;27.20;28.50;;;;;;4987738;28;20352;-66
2023/05/03 06:41:33;;;;;;;;;;;27.30;28.10;;;;;;4996108;28;20326;-68
2023/05/03 06:43:59;;;;;;;;;;;27.50;28.00;;;;;;4993127;28;19968;-65
2023/05/03 06:46:26;;;;;;;;;;;27.80;27.60;;;;;;4976399;28;20016;-66
2023/05/03 06:48:54;;;;;;;;;;;28.00;26.90;;;;;;4983985;28;19922;-65
2023/05/03 06:51:26;;;;;;;;;;;28.10;25.70;;;;;;4995360;28;19914;-66
2023/05/03 06:53:51;;;;;;;;;;;28.00;24.90;;;;;;5008638;28;19925;-68
2023/05/03 06:56:17;;;;;;;;;;;28.00;24.90;;;;;;4994676;28;19910;-66
2023/05/03 06:58:42;;;;;;;;;;;28.20;25.60;;;;;;4993325;28;19922;-66
2023/05/03 07:01:08;;;;;;;;;;;28.50;24.90;;;;;;5000754;28;19925;-66
2023/05/03 07:03:33;;;;;;;;;;;28.60;24.50;;;;;;4996589;28;19929;-66
2023/05/03 07:05:59;;;;;;;;;;;28.80;24.60;;;;;;4998776;28;19913;-66
2023/05/03 07:08:24;;;;;;;;;;;28.90;24.50;;;;;;4998842;28;19918;-66
2023/05/03 07:10:49;;;;;;;;;;;29.20;24.50;;;;;;4992218;28;19982;-66
2023/05/03 07:13:15;;;;;;;;;;;29.30;23.70;;;;;;4998819;28;19921;-66
2023/05/03 07:15:40;;;;;;;;;;;29.40;23.30;;;;;;4998029;28;20611;-66
2023/05/03 07:18:06;;;;;;;;;;;29.30;23.00;;;;;;4998065;28;19918;-66
2023/05/03 07:20:31;;;;;;;;;;;29.30;22.50;;;;;;4993942;28;19914;-66
2023/05/03 07:22:57;;;;;;;;;;;29.20;22.30;;;;;;4981752;28;19980;-66
2023/05/03 07:25:22;;;;;;;;;;;29.00;22.50;;;;;;4986645;28;19952;-66
2023/05/03 07:27:47;;;;;;;;;;;29.10;21.90;;;;;;4999541;28;20249;-66
2023/05/03 07:30:13;;;;;;;;;;;28.90;21.30;;;;;;4998890;28;19925;-66
2023/05/03 07:32:38;;;;;;;;;;;28.80;21.60;;;;;;4999288;28;19924;-66
2023/05/03 07:35:06;;;;;;;;;;;28.90;21.50;;;;;;4997164;28;20615;-66
2023/05/03 07:37:31;;;;;;;;;;;29.10;20.90;;;;;;4998314;28;19921;-66
2023/05/03 07:39:57;;;;;;;;;;;29.10;20.50;;;;;;5000015;28;19950;-66
2023/05/03 07:42:22;;;;;;;;;;;29.10;20.60;;;;;;4982953;28;19917;-66
2023/05/03 07:44:47;;;;;;;;;;;29.10;20.20;;;;;;4979597;28;19933;-66
2023/05/03 07:47:13;;;;;;;;;;;29.10;19.80;;;;;;4978329;28;20452;-66
2023/05/03 07:49:38;;;;;;;;;;;29.20;19.50;;;;;;4996391;28;19922;-66
2023/05/03 07:52:04;;;;;;;;;;;29.10;19.30;;;;;;4991458;28;19910;-66
2023/05/03 07:54:29;;;;;;;;;;;29.00;19.60;;;;;;4993866;28;19918;-65
2023/05/03 07:56:55;;;;;;;;;;;28.90;19.50;;;;;;4977325;28;20380;-66
2023/05/03 07:59:20;;;;;;;;;;;28.70;19.20;;;;;;4991003;28;19918;-65
2023/05/03 08:01:46;;;;;;;;;;;28.30;19.30;;;;;;4994387;28;20001;-65
2023/05/03 08:04:11;;;;;;;;;;;27.70;19.50;;;;;;4996278;28;19957;-65
2023/05/03 08:06:37;;;;;;;;;;;27.30;20.40;;;;;;4996318;28;20240;-68
2023/05/03 08:09:03;;;;;;;;;;;27.30;20.90;;;;;;4996584;28;19918;-66
2023/05/03 08:11:29;;;;;;;;;;;27.40;21.40;;;;;;4996953;28;20416;-66
2023/05/03 08:13:54;;;;;;;;;;;27.90;21.70;;;;;;4996246;28;19925;-66
2023/05/03 08:16:20;;;;;;;;;;;28.50;21.00;;;;;;4996453;28;19917;-66
2023/05/03 08:18:45;;;;;;;;;;;28.70;19.80;;;;;;4996380;28;19953;-66
2023/05/03 08:21:12;;;;;;;;;;;28.60;19.50;;;;;;4999971;28;19921;-66
2023/05/03 08:23:37;;;;;;;;;;;28.50;20.00;;;;;;4996329;28;20276;-66
2023/05/03 08:26:04;;;;;;;;;;;28.60;20.00;;;;;;4996089;28;19925;-66
2023/05/03 08:28:30;;;;;;;;;;;28.60;20.10;;;;;;4995113;28;19917;-67
2023/05/03 08:30:55;;;;;;;;;;;28.80;20.00;;;;;;4996855;28;19921;-66
2023/05/03 08:33:21;;;;;;;;;;;28.80;19.90;;;;;;4996323;28;19922;-67
2023/05/03 08:35:46;;;;;;;;;;;29.00;20.10;;;;;;4997167;28;19910;-66
2023/05/03 08:38:12;;;;;;;;;;;28.90;19.40;;;;;;4995997;28;19918;-66
2023/05/03 08:40:39;;;;;;;;;;;28.80;19.30;;;;;;4996457;28;19910;-66
2023/05/03 08:43:08;;;;;;;;;;;28.80;19.60;;;;;;4995577;28;19922;-66
2023/05/03 08:45:34;;;;;;;;;;;28.70;19.60;;;;;;4995587;28;19922;-66
2023/05/03 08:48:03;;;;;;;;;;;28.70;19.50;;;;;;4991883;28;19928;-66
2023/05/03 08:50:28;;;;;;;;;;;28.80;19.70;;;;;;4988723;28;19914;-66
2023/05/03 08:52:54;;;;;;;;;;;28.90;19.30;;;;;;4978680;28;19928;-66
2023/05/03 08:55:20;;;;;;;;;;;29.00;19.00;;;;;;4996383;28;19914;-66
2023/05/03 08:57:45;;;;;;;;;;;28.90;18.30;;;;;;4995410;28;19941;-66
2023/05/03 09:00:11;;;;;;;;;;;28.80;18.60;;;;;;4996143;28;20285;-66
2023/05/03 09:02:38;;;;;;;;;;;28.80;18.90;;;;;;4995026;28;20276;-66
2023/05/03 09:05:13;;;;;;;;;;;28.70;19.20;;;;;;4995685;28;20436;-66
2023/05/03 09:07:38;;;;;;;;;;;28.80;19.10;;;;;;4986947;28;19960;-66
2023/05/03 09:10:20;;;;;;;;;;;29.00;18.70;;;;;;4995813;28;19961;-66
2023/05/03 09:12:46;;;;;;;;;;;29.20;18.70;;;;;;4995741;28;19964;-67
2023/05/03 09:15:20;;;;;;;;;;;29.30;18.80;;;;;;4988633;28;19921;-66
2023/05/03 09:17:45;;;;;;;;;;;29.20;18.60;;;;;;4994715;28;20007;-66
2023/05/03 09:20:11;;;;;;;;;;;29.20;18.70;;;;;;4986555;28;20414;-66
2023/05/03 09:22:48;;;;;;;;;;;28.90;18.40;;;;;;4989716;28;20009;-66
2023/05/03 09:25:14;;;;;;;;;;;29.00;19.00;;;;;;4989071;28;19918;-66
2023/05/03 09:27:41;;;;;;;;;;;29.00;18.50;;;;;;4985204;28;19941;-66
2023/05/03 09:30:16;;;;;;;;;;;28.80;18.70;;;;;;4986375;28;20356;-66
2023/05/03 09:32:48;;;;;;;;;;;28.60;18.30;;;;;;4992707;28;20369;-66
2023/05/03 09:35:14;;;;;;;;;;;28.30;18.30;;;;;;4977174;28;19920;-66
2023/05/03 09:37:39;;;;;;;;;;;28.20;18.90;;;;;;4985564;28;19918;-66
2023/05/03 09:40:06;;;;;;;;;;;28.40;19.20;;;;;;4996511;28;20227;-66
2023/05/03 09:42:32;;;;;;;;;;;28.60;18.70;;;;;;4993403;28;19949;-66
2023/05/03 09:44:57;;;;;;;;;;;28.70;18.70;;;;;;4990539;28;19941;-66
2023/05/03 09:47:24;;;;;;;;;;;29.00;18.70;;;;;;5000696;28;19979;-66
2023/05/03 09:49:49;;;;;;;;;;;29.30;18.80;;;;;;5014662;28;20008;-66
2023/05/03 09:52:15;;;;;;;;;;;29.80;18.90;;;;;;5014593;28;19967;-66
2023/05/03 09:54:41;;;;;;;;;;;30.30;18.70;;;;;;5014817;28;20361;-66
2023/05/03 09:57:07;;;;;;;;;;;30.60;18.10;;;;;;5014725;28;20004;-67
2023/05/03 09:59:34;;;;;;;;;;;30.80;18.10;;;;;;4981203;28;19974;-66
2023/05/03 10:02:01;;;;;;;;;;;31.10;17.70;;;;;;4995088;28;19910;-66
2023/05/03 10:04:27;;;;;;;;;;;31.30;17.50;;;;;;4984844;28;19921;-66
2023/05/03 10:06:55;;;;;;;;;;;31.30;17.10;;;;;;4983503;28;19918;-66
2023/05/03 10:09:23;;;;;;;;;;;31.00;16.90;;;;;;4980348;28;19922;-66
2023/05/03 10:11:51;;;;;;;;;;;30.90;17.30;;;;;;4989319;28;19917;-66
2023/05/03 10:14:18;;;;;;;;;;;31.00;17.50;;;;;;4986976;28;20004;-66
2023/05/03 10:16:46;;;;;;;;;;;31.30;17.40;;;;;;4979548;28;20601;-66
2023/05/03 10:19:17;;;;;;;;;;;31.60;16.90;;;;;;4994119;28;19933;-66
2023/05/03 10:22:01;;;;;;;;;;;31.70;16.70;;;;;;4990786;28;19918;-67
2023/05/03 10:24:26;;;;;;;;;;;31.60;16.60;;;;;;4968443;28;19918;-66
2023/05/03 10:26:54;;;;;;;;;;;31.60;16.60;;;;;;4994681;28;19917;-66
2023/05/03 10:29:32;;;;;;;;;;;31.90;16.80;;;;;;4993847;28;20021;-66
2023/05/03 10:31:57;;;;;;;;;;;32.20;16.90;;;;;;4993860;28;20353;-66
2023/05/03 10:34:23;;;;;;;;;;;32.60;16.50;;;;;;4995279;28;19992;-66
2023/05/03 10:36:52;;;;;;;;;;;32.80;16.60;;;;;;4993348;28;19914;-66
2023/05/03 10:39:18;;;;;;;;;;;32.80;16.10;;;;;;4977447;28;20017;-66
2023/05/03 10:41:44;;;;;;;;;;;32.50;15.70;;;;;;4993326;28;20008;-66
2023/05/03 10:44:33;;;;;;;;;;;32.30;15.50;;;;;;4995325;28;19984;-66
2023/05/03 10:47:08;;;;;;;;;;;32.10;15.80;;;;;;4995422;28;20376;-66
2023/05/03 10:49:33;;;;;;;;;;;32.20;16.00;;;;;;4996267;28;20416;-66
2023/05/03 10:51:59;;;;;;;;;;;32.30;15.90;;;;;;4993481;28;19914;-66
2023/05/03 10:54:24;;;;;;;;;;;32.20;15.30;;;;;;5002699;28;19925;-66
2023/05/03 10:56:51;;;;;;;;;;;31.80;15.40;;;;;;5010636;28;19913;-66
2023/05/03 10:59:16;;;;;;;;;;;31.50;15.50;;;;;;4996720;28;19925;-66
2023/05/03 11:01:43;;;;;;;;;;;31.20;15.70;;;;;;4992787;28;19948;-66
2023/05/03 11:04:10;;;;;;;;;;;30.90;15.90;;;;;;4980947;28;20365;-66
2023/05/03 11:06:36;;;;;;;;;;;31.00;16.00;;;;;;4989483;28;19946;-66
2023/05/03 11:09:03;;;;;;;;;;;31.10;16.10;;;;;;4983655;28;19942;-66
2023/05/03 11:11:28;;;;;;;;;;;31.30;16.30;;;;;;5004696;28;19914;-66
2023/05/03 11:13:54;;;;;;;;;;;31.70;16.10;;;;;;5013755;28;19928;-66
2023/05/03 11:16:19;;;;;;;;;;;32.10;16.10;;;;;;4997832;28;19928;-67
2023/05/03 11:18:45;;;;;;;;;;;32.30;16.30;;;;;;4994961;28;19918;-66
2023/05/03 11:21:11;;;;;;;;;;;32.70;15.80;;;;;;4995122;28;19913;-66
2023/05/03 11:23:37;;;;;;;;;;;32.70;15.60;;;;;;4990796;28;19917;-62
2023/05/03 11:26:06;;;;;;;;;;;32.50;15.60;;;;;;4991002;28;20285;-62
2023/05/03 11:28:31;;;;;;;;;;;32.40;15.60;;;;;;4993287;28;20101;-62
2023/05/03 11:30:57;;;;;;;;;;;32.10;15.30;;;;;;4976995;28;20001;-63
2023/05/03 11:33:22;;;;;;;;;;;32.00;15.50;;;;;;4972583;28;20004;-62
2023/05/03 11:35:48;;;;;;;;;;;31.70;15.70;;;;;;4983533;28;19921;-62
2023/05/03 11:38:13;;;;;;;;;;;31.80;16.10;;;;;;4984056;28;19928;-62
2023/05/03 11:40:40;;;;;;;;;;;32.30;16.10;;;;;;4991708;28;19910;-61
2023/05/03 11:43:08;;;;;;;;;;;32.50;15.80;;;;;;4990072;28;19996;-62
2023/05/03 11:45:39;;;;;;;;;;;32.80;15.80;;;;;;4990713;28;20300;-62
2023/05/03 11:48:05;;;;;;;;;;;32.70;15.10;;;;;;4995989;28;19926;-62
2023/05/03 11:50:47;;;;;;;;;;;32.60;15.30;;;;;;4991501;28;20336;-62
2023/05/03 11:53:12;;;;;;;;;;;32.60;15.30;;;;;;4999633;28;20378;-62
2023/05/03 11:55:41;;;;;;;;;;;32.50;15.20;;;;;;4994622;28;20008;-62
2023/05/03 11:58:16;;;;;;;;;;;32.30;15.00;;;;;;4990062;28;19933;-62
2023/05/03 12:00:46;;;;;;;;;;;32.20;15.40;;;;;;4994331;28;19914;-62
2023/05/03 12:03:22;;;;;;;;;;;32.30;15.70;;;;;;4993647;28;20357;-61
2023/05/03 12:05:47;;;;;;;;;;;32.80;15.60;;;;;;5006086;28;19921;-61
2023/05/03 12:08:14;;;;;;;;;;;33.00;15.40;;;;;;4993891;28;20366;-61
2023/05/03 12:10:40;;;;;;;;;;;32.90;15.00;;;;;;4993803;28;19921;-62
2023/05/03 12:13:06;;;;;;;;;;;32.80;15.10;;;;;;5008699;28;19921;-61
2023/05/03 12:15:36;;;;;;;;;;;32.70;14.90;;;;;;5012340;28;19921;-62
2023/05/03 12:18:04;;;;;;;;;;;32.50;14.90;;;;;;4991741;28;19921;-63
2023/05/03 12:20:29;;;;;;;;;;;32.20;14.90;;;;;;4991793;28;19960;-61
2023/05/03 12:22:57;;;;;;;;;;;32.00;15.10;;;;;;4992522;28;19957;-61
2023/05/03 12:25:22;;;;;;;;;;;32.10;15.30;;;;;;5003421;28;20420;-61
2023/05/03 12:27:48;;;;;;;;;;;32.30;15.40;;;;;;4995072;28;19918;-61
2023/05/03 12:30:13;;;;;;;;;;;32.20;14.80;;;;;;4993314;28;19953;-62
2023/05/03 12:32:39;;;;;;;;;;;31.80;15.00;;;;;;4993860;28;19926;-61
2023/05/03 12:35:05;;;;;;;;;;;31.70;15.40;;;;;;4992363;28;19914;-62
2023/05/03 12:37:31;;;;;;;;;;;31.60;15.60;;;;;;4993975;28;19925;-62
2023/05/03 12:39:56;;;;;;;;;;;31.70;15.70;;;;;;4992737;28;19968;-62
2023/05/03 12:42:21;;;;;;;;;;;31.70;15.60;;;;;;4993137;28;19910;-62
2023/05/03 12:44:47;;;;;;;;;;;31.50;15.70;;;;;;5004574;28;20027;-62
2023/05/03 12:47:12;;;;;;;;;;;31.40;16.00;;;;;;5012273;28;19918;-62
2023/05/03 12:49:38;;;;;;;;;;;31.60;16.00;;;;;;4989275;28;19925;-63
2023/05/03 12:52:03;;;;;;;;;;;31.80;16.10;;;;;;4975059;28;20733;-63
2023/05/03 12:54:29;;;;;;;;;;;32.00;16.10;;;;;;4982566;28;20270;-63
2023/05/03 12:56:54;;;;;;;;;;;32.40;16.10;;;;;;4974679;28;19917;-63
2023/05/03 12:59:20;;;;;;;;;;;32.40;15.40;;;;;;4986188;28;20117;-63
2023/05/03 13:01:46;;;;;;;;;;;32.00;15.30;;;;;;4993890;28;19910;-63
2023/05/03 13:04:11;;;;;;;;;;;31.70;15.70;;;;;;4990910;28;19918;-63
2023/05/03 13:06:37;;;;;;;;;;;31.30;15.70;;;;;;4994287;28;19913;-63
2023/05/03 13:09:04;;;;;;;;;;;31.10;15.90;;;;;;4996180;28;19932;-61
2023/05/03 13:11:30;;;;;;;;;;;31.20;16.10;;;;;;5013476;28;19914;-63
2023/05/03 13:13:55;;;;;;;;;;;31.20;16.10;;;;;;5001234;28;19966;-64
2023/05/03 13:16:21;;;;;;;;;;;31.10;15.90;;;;;;4974646;28;19914;-62
2023/05/03 13:18:47;;;;;;;;;;;30.80;16.20;;;;;;4974593;28;20266;-62
2023/05/03 13:21:12;;;;;;;;;;;30.70;16.40;;;;;;4974159;28;20004;-62
2023/05/03 13:23:38;;;;;;;;;;;30.40;16.50;;;;;;4979253;28;19957;-62
2023/05/03 13:26:03;;;;;;;;;;;30.40;16.50;;;;;;4993436;28;20395;-61
2023/05/03 13:28:29;;;;;;;;;;;30.40;16.50;;;;;;4992796;28;20004;-61
2023/05/03 13:30:55;;;;;;;;;;;30.30;16.50;;;;;;4993498;28;20269;-63
2023/05/03 13:33:20;;;;;;;;;;;30.30;16.60;;;;;;4991909;28;19930;-61
2023/05/03 13:35:45;;;;;;;;;;;30.30;16.70;;;;;;4993655;28;20427;-64
2023/05/03 13:38:11;;;;;;;;;;;30.50;16.70;;;;;;4992615;28;19918;-65
2023/05/03 13:40:36;;;;;;;;;;;30.30;16.80;;;;;;4993470;28;19910;-62
2023/05/03 13:43:02;;;;;;;;;;;29.80;17.00;;;;;;4977283;28;19918;-63
2023/05/03 13:45:27;;;;;;;;;;;29.40;17.40;;;;;;4990709;28;20057;-63
2023/05/03 13:47:53;;;;;;;;;;;29.20;17.80;;;;;;4992991;28;20415;-63
2023/05/03 13:50:18;;;;;;;;;;;29.00;17.90;;;;;;4992231;28;20004;-63
2023/05/03 13:52:44;;;;;;;;;;;29.10;18.20;;;;;;4993388;28;19940;-63
2023/05/03 13:55:09;;;;;;;;;;;29.30;18.20;;;;;;4992156;28;19921;-63
2023/05/03 13:57:35;;;;;;;;;;;29.30;18.00;;;;;;4993080;28;20278;-63
2023/05/03 14:00:00;;;;;;;;;;;29.00;18.10;;;;;;4992123;28;19949;-63
2023/05/03 14:02:26;;;;;;;;;;;29.00;18.40;;;;;;4992918;28;20397;-63
2023/05/03 14:04:52;;;;;;;;;;;28.80;18.30;;;;;;4991763;28;19909;-64
2023/05/03 14:07:18;;;;;;;;;;;28.50;18.60;;;;;;4992913;28;19913;-63
2023/05/03 14:09:43;;;;;;;;;;;28.00;18.90;;;;;;4977545;28;20162;-63
2023/05/03 14:12:08;;;;;;;;;;;27.50;19.20;;;;;;4973310;28;19956;-63
2023/05/03 14:14:35;;;;;;;;;;;26.90;19.60;;;;;;4973324;28;19918;-63
2023/05/03 14:17:01;;;;;;;;;;;26.40;20.20;;;;;;4973178;28;19910;-63